sensor_id;sensor_type;location;lat;lon;timestamp;P1;durP1;ratioP1;P2;durP2;ratioP2
74636;SDS011;63141;54.616;39.754;2023-06-14T00:01:55;2.85;;;1.42;;
74636;SDS011;63141;54.616;39.754;2023-06-14T00:04:57;3.42;;;1.60;;
74636;SDS011;63141;54.616;39.754;2023-06-14T00:08:01;5.82;;;1.38;;
74636;SDS011;63141;54.616;39.754;2023-06-14T00:11:02;4.28;;;1.50;;
74636;SDS011;63141;54.616;39.754;2023-06-14T00:14:04;2.08;;;1.20;;
74636;SDS011;63141;54.616;39.754;2023-06-14T00:17:06;2.38;;;1.42;;
74636;SDS011;63141;54.616;39.754;2023-06-14T00:20:08;2.97;;;1.40;;
74636;SDS011;63141;54.616;39.754;2023-06-14T00:23:10;3.08;;;1.50;;
74636;SDS011;63141;54.616;39.754;2023-06-14T00:26:11;2.67;;;1.30;;
74636;SDS011;63141;54.616;39.754;2023-06-14T00:29:15;2.20;;;1.38;;
74636;SDS011;63141;54.616;39.754;2023-06-14T00:32:16;2.10;;;1.40;;
74636;SDS011;63141;54.616;39.754;2023-06-14T00:35:19;4.22;;;1.60;;
74636;SDS011;63141;54.616;39.754;2023-06-14T00:38:20;2.35;;;1.50;;
74636;SDS011;63141;54.616;39.754;2023-06-14T00:41:22;3.67;;;1.33;;
74636;SDS011;63141;54.616;39.754;2023-06-14T00:44:23;1.90;;;1.50;;
74636;SDS011;63141;54.616;39.754;2023-06-14T00:47:27;2.33;;;1.33;;
74636;SDS011;63141;54.616;39.754;2023-06-14T00:50:28;5.18;;;1.33;;
74636;SDS011;63141;54.616;39.754;2023-06-14T00:53:32;2.58;;;1.60;;
74636;SDS011;63141;54.616;39.754;2023-06-14T00:56:36;1.90;;;1.50;;
74636;SDS011;63141;54.616;39.754;2023-06-14T00:59:40;3.95;;;1.20;;
74636;SDS011;63141;54.616;39.754;2023-06-14T01:02:46;2.95;;;1.50;;
74636;SDS011;63141;54.616;39.754;2023-06-14T01:05:53;2.70;;;1.27;;
74636;SDS011;63141;54.616;39.754;2023-06-14T01:12:24;1.58;;;1.30;;
74636;SDS011;63141;54.616;39.754;2023-06-14T01:15:32;3.45;;;1.50;;
74636;SDS011;63141;54.616;39.754;2023-06-14T01:18:35;2.85;;;1.30;;
74636;SDS011;63141;54.616;39.754;2023-06-14T01:21:37;1.13;;;1.00;;
74636;SDS011;63141;54.616;39.754;2023-06-14T01:24:42;2.13;;;1.30;;
74636;SDS011;63141;54.616;39.754;2023-06-14T01:27:47;1.90;;;1.20;;
74636;SDS011;63141;54.616;39.754;2023-06-14T01:31:01;3.40;;;1.10;;
74636;SDS011;63141;54.616;39.754;2023-06-14T01:34:10;1.95;;;1.40;;
74636;SDS011;63141;54.616;39.754;2023-06-14T01:37:12;2.65;;;1.50;;
74636;SDS011;63141;54.616;39.754;2023-06-14T01:40:14;6.03;;;1.23;;
74636;SDS011;63141;54.616;39.754;2023-06-14T01:43:18;1.50;;;1.30;;
74636;SDS011;63141;54.616;39.754;2023-06-14T01:46:20;2.80;;;1.30;;
74636;SDS011;63141;54.616;39.754;2023-06-14T01:49:21;7.30;;;1.50;;
74636;SDS011;63141;54.616;39.754;2023-06-14T01:52:23;2.65;;;1.30;;
74636;SDS011;63141;54.616;39.754;2023-06-14T01:55:25;2.70;;;1.40;;
74636;SDS011;63141;54.616;39.754;2023-06-14T01:58:26;3.17;;;1.40;;
74636;SDS011;63141;54.616;39.754;2023-06-14T02:01:31;2.38;;;1.38;;
74636;SDS011;63141;54.616;39.754;2023-06-14T02:04:41;1.67;;;1.27;;
74636;SDS011;63141;54.616;39.754;2023-06-14T02:07:43;1.80;;;1.27;;
74636;SDS011;63141;54.616;39.754;2023-06-14T02:10:44;2.50;;;1.40;;
74636;SDS011;63141;54.616;39.754;2023-06-14T02:13:45;2.90;;;1.40;;
74636;SDS011;63141;54.616;39.754;2023-06-14T02:16:47;4.90;;;1.17;;
74636;SDS011;63141;54.616;39.754;2023-06-14T02:19:50;5.68;;;1.30;;
74636;SDS011;63141;54.616;39.754;2023-06-14T02:22:51;3.75;;;1.40;;
74636;SDS011;63141;54.616;39.754;2023-06-14T02:25:52;1.55;;;1.20;;
74636;SDS011;63141;54.616;39.754;2023-06-14T02:28:56;1.95;;;1.13;;
74636;SDS011;63141;54.616;39.754;2023-06-14T02:31:57;1.60;;;1.27;;
74636;SDS011;63141;54.616;39.754;2023-06-14T02:34:59;1.70;;;1.20;;
74636;SDS011;63141;54.616;39.754;2023-06-14T02:38:00;2.25;;;1.50;;
74636;SDS011;63141;54.616;39.754;2023-06-14T02:41:02;1.30;;;1.20;;
74636;SDS011;63141;54.616;39.754;2023-06-14T02:44:03;2.70;;;1.40;;
74636;SDS011;63141;54.616;39.754;2023-06-14T02:47:05;3.03;;;1.25;;
74636;SDS011;63141;54.616;39.754;2023-06-14T02:50:06;3.03;;;1.33;;
74636;SDS011;63141;54.616;39.754;2023-06-14T02:53:29;3.55;;;1.25;;
74636;SDS011;63141;54.616;39.754;2023-06-14T02:56:30;4.97;;;1.45;;
74636;SDS011;63141;54.616;39.754;2023-06-14T02:59:32;3.38;;;1.70;;
74636;SDS011;63141;54.616;39.754;2023-06-14T03:02:33;1.35;;;1.20;;
74636;SDS011;63141;54.616;39.754;2023-06-14T03:05:41;6.25;;;1.50;;
74636;SDS011;63141;54.616;39.754;2023-06-14T03:08:52;3.85;;;1.50;;
74636;SDS011;63141;54.616;39.754;2023-06-14T03:11:57;5.65;;;1.85;;
74636;SDS011;63141;54.616;39.754;2023-06-14T03:14:58;3.92;;;1.77;;
74636;SDS011;63141;54.616;39.754;2023-06-14T03:18:08;2.83;;;1.42;;
74636;SDS011;63141;54.616;39.754;2023-06-14T03:21:11;3.10;;;1.50;;
74636;SDS011;63141;54.616;39.754;2023-06-14T03:24:15;2.85;;;1.60;;
74636;SDS011;63141;54.616;39.754;2023-06-14T03:27:20;2.17;;;1.50;;
74636;SDS011;63141;54.616;39.754;2023-06-14T03:30:22;3.65;;;1.50;;
74636;SDS011;63141;54.616;39.754;2023-06-14T03:33:26;2.03;;;1.50;;
74636;SDS011;63141;54.616;39.754;2023-06-14T03:36:29;2.78;;;1.55;;
74636;SDS011;63141;54.616;39.754;2023-06-14T03:39:30;2.40;;;1.55;;
74636;SDS011;63141;54.616;39.754;2023-06-14T03:42:32;2.15;;;1.48;;
74636;SDS011;63141;54.616;39.754;2023-06-14T03:45:33;2.70;;;1.58;;
74636;SDS011;63141;54.616;39.754;2023-06-14T03:48:35;3.60;;;1.50;;
74636;SDS011;63141;54.616;39.754;2023-06-14T03:51:37;5.75;;;1.40;;
74636;SDS011;63141;54.616;39.754;2023-06-14T03:54:38;3.78;;;1.30;;
74636;SDS011;63141;54.616;39.754;2023-06-14T03:57:40;3.47;;;1.75;;
74636;SDS011;63141;54.616;39.754;2023-06-14T04:00:47;3.97;;;1.60;;
74636;SDS011;63141;54.616;39.754;2023-06-14T04:03:49;3.70;;;1.90;;
74636;SDS011;63141;54.616;39.754;2023-06-14T04:06:54;12.98;;;1.77;;
74636;SDS011;63141;54.616;39.754;2023-06-14T04:10:00;7.72;;;2.38;;
74636;SDS011;63141;54.616;39.754;2023-06-14T04:13:01;6.20;;;3.72;;
74636;SDS011;63141;54.616;39.754;2023-06-14T04:16:02;8.90;;;4.07;;
74636;SDS011;63141;54.616;39.754;2023-06-14T04:19:08;18.40;;;7.63;;
74636;SDS011;63141;54.616;39.754;2023-06-14T04:22:10;20.33;;;9.70;;
74636;SDS011;63141;54.616;39.754;2023-06-14T04:25:12;23.23;;;7.47;;
74636;SDS011;63141;54.616;39.754;2023-06-14T04:28:14;13.25;;;6.97;;
74636;SDS011;63141;54.616;39.754;2023-06-14T04:31:17;26.15;;;10.20;;
74636;SDS011;63141;54.616;39.754;2023-06-14T04:34:20;18.42;;;8.95;;
74636;SDS011;63141;54.616;39.754;2023-06-14T04:37:28;30.92;;;13.00;;
74636;SDS011;63141;54.616;39.754;2023-06-14T04:40:32;20.00;;;10.07;;
74636;SDS011;63141;54.616;39.754;2023-06-14T04:43:35;30.45;;;10.27;;
74636;SDS011;63141;54.616;39.754;2023-06-14T04:46:40;21.42;;;8.18;;
74636;SDS011;63141;54.616;39.754;2023-06-14T04:49:51;18.02;;;8.02;;
74636;SDS011;63141;54.616;39.754;2023-06-14T04:52:55;24.65;;;9.88;;
74636;SDS011;63141;54.616;39.754;2023-06-14T04:55:58;18.02;;;7.38;;
74636;SDS011;63141;54.616;39.754;2023-06-14T04:59:00;14.00;;;6.50;;
74636;SDS011;63141;54.616;39.754;2023-06-14T05:02:05;15.25;;;7.00;;
74636;SDS011;63141;54.616;39.754;2023-06-14T05:05:08;15.95;;;7.10;;
74636;SDS011;63141;54.616;39.754;2023-06-14T05:08:12;15.65;;;6.10;;
74636;SDS011;63141;54.616;39.754;2023-06-14T05:11:16;15.90;;;6.07;;
74636;SDS011;63141;54.616;39.754;2023-06-14T05:14:18;15.73;;;6.28;;
74636;SDS011;63141;54.616;39.754;2023-06-14T05:17:20;15.05;;;5.43;;
74636;SDS011;63141;54.616;39.754;2023-06-14T05:20:22;17.77;;;6.63;;
74636;SDS011;63141;54.616;39.754;2023-06-14T05:23:27;12.23;;;5.53;;
74636;SDS011;63141;54.616;39.754;2023-06-14T05:26:28;10.68;;;4.38;;
74636;SDS011;63141;54.616;39.754;2023-06-14T05:29:30;12.60;;;5.30;;
74636;SDS011;63141;54.616;39.754;2023-06-14T05:32:32;14.10;;;4.20;;
74636;SDS011;63141;54.616;39.754;2023-06-14T05:35:33;10.65;;;3.20;;
74636;SDS011;63141;54.616;39.754;2023-06-14T05:38:35;11.35;;;2.97;;
74636;SDS011;63141;54.616;39.754;2023-06-14T05:41:36;6.82;;;2.50;;
74636;SDS011;63141;54.616;39.754;2023-06-14T05:44:37;6.85;;;2.28;;
74636;SDS011;63141;54.616;39.754;2023-06-14T05:47:39;5.88;;;2.03;;
74636;SDS011;63141;54.616;39.754;2023-06-14T05:50:42;5.93;;;1.98;;
74636;SDS011;63141;54.616;39.754;2023-06-14T05:53:44;4.18;;;2.03;;
74636;SDS011;63141;54.616;39.754;2023-06-14T05:56:47;4.03;;;1.90;;
74636;SDS011;63141;54.616;39.754;2023-06-14T05:59:48;5.43;;;2.10;;
74636;SDS011;63141;54.616;39.754;2023-06-14T06:02:52;6.60;;;1.88;;
74636;SDS011;63141;54.616;39.754;2023-06-14T06:05:53;4.43;;;1.90;;
74636;SDS011;63141;54.616;39.754;2023-06-14T06:08:57;4.65;;;2.10;;
74636;SDS011;63141;54.616;39.754;2023-06-14T06:11:59;3.13;;;1.92;;
74636;SDS011;63141;54.616;39.754;2023-06-14T06:15:00;4.40;;;2.10;;
74636;SDS011;63141;54.616;39.754;2023-06-14T06:18:02;4.00;;;2.22;;
74636;SDS011;63141;54.616;39.754;2023-06-14T06:21:03;3.80;;;2.30;;
74636;SDS011;63141;54.616;39.754;2023-06-14T06:24:05;9.77;;;2.40;;
74636;SDS011;63141;54.616;39.754;2023-06-14T06:27:06;7.60;;;2.20;;
74636;SDS011;63141;54.616;39.754;2023-06-14T06:30:09;6.90;;;2.22;;
74636;SDS011;63141;54.616;39.754;2023-06-14T06:33:14;4.75;;;2.38;;
74636;SDS011;63141;54.616;39.754;2023-06-14T06:36:15;6.75;;;2.50;;
74636;SDS011;63141;54.616;39.754;2023-06-14T06:39:17;5.10;;;2.28;;
74636;SDS011;63141;54.616;39.754;2023-06-14T06:42:18;4.32;;;2.40;;
74636;SDS011;63141;54.616;39.754;2023-06-14T06:45:24;3.33;;;2.35;;
74636;SDS011;63141;54.616;39.754;2023-06-14T06:48:25;4.60;;;2.40;;
74636;SDS011;63141;54.616;39.754;2023-06-14T06:51:27;2.63;;;2.00;;
74636;SDS011;63141;54.616;39.754;2023-06-14T06:54:28;5.90;;;2.33;;
74636;SDS011;63141;54.616;39.754;2023-06-14T06:57:30;4.18;;;2.10;;
74636;SDS011;63141;54.616;39.754;2023-06-14T07:00:31;6.88;;;2.08;;
74636;SDS011;63141;54.616;39.754;2023-06-14T07:03:37;5.63;;;2.20;;
74636;SDS011;63141;54.616;39.754;2023-06-14T07:06:39;5.68;;;2.30;;
74636;SDS011;63141;54.616;39.754;2023-06-14T07:09:40;5.18;;;2.25;;
74636;SDS011;63141;54.616;39.754;2023-06-14T07:12:43;7.15;;;2.17;;
74636;SDS011;63141;54.616;39.754;2023-06-14T07:15:44;18.00;;;2.55;;
74636;SDS011;63141;54.616;39.754;2023-06-14T07:18:45;5.25;;;2.33;;
74636;SDS011;63141;54.616;39.754;2023-06-14T07:21:47;3.42;;;2.25;;
74636;SDS011;63141;54.616;39.754;2023-06-14T07:24:52;3.47;;;2.13;;
74636;SDS011;63141;54.616;39.754;2023-06-14T07:27:53;6.05;;;2.25;;
74636;SDS011;63141;54.616;39.754;2023-06-14T07:30:58;6.32;;;1.90;;
74636;SDS011;63141;54.616;39.754;2023-06-14T07:34:03;3.80;;;2.10;;
74636;SDS011;63141;54.616;39.754;2023-06-14T07:37:04;4.22;;;1.90;;
74636;SDS011;63141;54.616;39.754;2023-06-14T07:40:09;4.70;;;1.85;;
74636;SDS011;63141;54.616;39.754;2023-06-14T07:43:14;5.72;;;2.20;;
74636;SDS011;63141;54.616;39.754;2023-06-14T07:46:15;4.47;;;2.20;;
74636;SDS011;63141;54.616;39.754;2023-06-14T07:49:19;3.42;;;2.22;;
74636;SDS011;63141;54.616;39.754;2023-06-14T07:52:21;5.22;;;2.00;;
74636;SDS011;63141;54.616;39.754;2023-06-14T07:55:25;5.70;;;2.13;;
74636;SDS011;63141;54.616;39.754;2023-06-14T07:58:27;4.75;;;2.25;;
74636;SDS011;63141;54.616;39.754;2023-06-14T08:01:34;3.63;;;2.10;;
74636;SDS011;63141;54.616;39.754;2023-06-14T08:04:35;3.35;;;2.25;;
74636;SDS011;63141;54.616;39.754;2023-06-14T08:07:39;4.20;;;2.13;;
74636;SDS011;63141;54.616;39.754;2023-06-14T08:10:41;4.28;;;2.40;;
74636;SDS011;63141;54.616;39.754;2023-06-14T08:13:42;5.00;;;2.28;;
74636;SDS011;63141;54.616;39.754;2023-06-14T08:16:44;6.07;;;2.30;;
74636;SDS011;63141;54.616;39.754;2023-06-14T08:19:45;2.60;;;2.10;;
74636;SDS011;63141;54.616;39.754;2023-06-14T08:22:46;3.55;;;1.70;;
74636;SDS011;63141;54.616;39.754;2023-06-14T08:25:49;7.30;;;2.20;;
74636;SDS011;63141;54.616;39.754;2023-06-14T08:28:50;6.32;;;2.60;;
74636;SDS011;63141;54.616;39.754;2023-06-14T08:31:54;5.18;;;2.15;;
74636;SDS011;63141;54.616;39.754;2023-06-14T08:35:02;5.75;;;2.17;;
74636;SDS011;63141;54.616;39.754;2023-06-14T08:38:04;4.45;;;2.42;;
74636;SDS011;63141;54.616;39.754;2023-06-14T08:41:06;5.68;;;2.35;;
74636;SDS011;63141;54.616;39.754;2023-06-14T08:44:16;5.63;;;2.45;;
74636;SDS011;63141;54.616;39.754;2023-06-14T08:47:21;6.50;;;2.63;;
74636;SDS011;63141;54.616;39.754;2023-06-14T08:50:31;5.63;;;3.00;;
74636;SDS011;63141;54.616;39.754;2023-06-14T08:53:33;7.88;;;2.75;;
74636;SDS011;63141;54.616;39.754;2023-06-14T08:56:39;6.55;;;2.88;;
74636;SDS011;63141;54.616;39.754;2023-06-14T08:59:47;10.63;;;3.30;;
74636;SDS011;63141;54.616;39.754;2023-06-14T09:02:58;8.85;;;2.60;;
74636;SDS011;63141;54.616;39.754;2023-06-14T09:06:03;7.68;;;3.00;;
74636;SDS011;63141;54.616;39.754;2023-06-14T09:09:12;5.05;;;2.78;;
74636;SDS011;63141;54.616;39.754;2023-06-14T09:12:14;8.23;;;3.22;;
74636;SDS011;63141;54.616;39.754;2023-06-14T09:15:16;6.53;;;2.92;;
74636;SDS011;63141;54.616;39.754;2023-06-14T09:18:20;6.93;;;3.38;;
74636;SDS011;63141;54.616;39.754;2023-06-14T09:21:22;6.22;;;3.22;;
74636;SDS011;63141;54.616;39.754;2023-06-14T09:24:29;4.70;;;2.75;;
74636;SDS011;63141;54.616;39.754;2023-06-14T09:27:36;6.30;;;2.42;;
74636;SDS011;63141;54.616;39.754;2023-06-14T09:30:46;6.93;;;2.90;;
74636;SDS011;63141;54.616;39.754;2023-06-14T09:33:49;7.18;;;3.38;;
74636;SDS011;63141;54.616;39.754;2023-06-14T09:36:51;6.57;;;2.60;;
74636;SDS011;63141;54.616;39.754;2023-06-14T09:39:52;4.13;;;2.60;;
74636;SDS011;63141;54.616;39.754;2023-06-14T09:42:54;7.75;;;2.97;;
74636;SDS011;63141;54.616;39.754;2023-06-14T09:46:02;4.43;;;2.90;;
74636;SDS011;63141;54.616;39.754;2023-06-14T09:49:05;5.97;;;2.90;;
74636;SDS011;63141;54.616;39.754;2023-06-14T09:52:14;6.00;;;2.70;;
74636;SDS011;63141;54.616;39.754;2023-06-14T09:55:24;7.80;;;2.88;;
74636;SDS011;63141;54.616;39.754;2023-06-14T09:58:37;4.93;;;2.42;;
74636;SDS011;63141;54.616;39.754;2023-06-14T10:01:47;5.03;;;2.50;;
74636;SDS011;63141;54.616;39.754;2023-06-14T10:04:52;6.03;;;3.28;;
74636;SDS011;63141;54.616;39.754;2023-06-14T10:08:08;6.15;;;2.70;;
74636;SDS011;63141;54.616;39.754;2023-06-14T10:11:11;8.35;;;2.47;;
74636;SDS011;63141;54.616;39.754;2023-06-14T10:14:17;4.72;;;2.65;;
74636;SDS011;63141;54.616;39.754;2023-06-14T10:20:44;6.22;;;2.70;;
74636;SDS011;63141;54.616;39.754;2023-06-14T10:24:27;8.02;;;2.85;;
74636;SDS011;63141;54.616;39.754;2023-06-14T10:27:36;5.60;;;2.67;;
74636;SDS011;63141;54.616;39.754;2023-06-14T10:34:27;5.40;;;2.90;;
74636;SDS011;63141;54.616;39.754;2023-06-14T10:37:38;4.70;;;2.40;;
74636;SDS011;63141;54.616;39.754;2023-06-14T10:40:39;3.17;;;2.08;;
74636;SDS011;63141;54.616;39.754;2023-06-14T10:43:42;6.38;;;2.60;;
74636;SDS011;63141;54.616;39.754;2023-06-14T10:46:59;7.13;;;2.60;;
74636;SDS011;63141;54.616;39.754;2023-06-14T10:50:07;4.82;;;2.67;;
74636;SDS011;63141;54.616;39.754;2023-06-14T10:53:22;5.68;;;2.67;;
74636;SDS011;63141;54.616;39.754;2023-06-14T10:56:31;5.40;;;2.65;;
74636;SDS011;63141;54.616;39.754;2023-06-14T10:59:39;7.20;;;3.10;;
74636;SDS011;63141;54.616;39.754;2023-06-14T11:05:56;6.78;;;2.88;;
74636;SDS011;63141;54.616;39.754;2023-06-14T11:12:47;8.02;;;2.78;;
74636;SDS011;63141;54.616;39.754;2023-06-14T11:15:49;20.20;;;4.32;;
74636;SDS011;63141;54.616;39.754;2023-06-14T11:19:01;18.83;;;4.70;;
74636;SDS011;63141;54.616;39.754;2023-06-14T11:22:06;22.67;;;4.55;;
74636;SDS011;63141;54.616;39.754;2023-06-14T11:25:15;16.63;;;4.38;;
74636;SDS011;63141;54.616;39.754;2023-06-14T11:28:34;15.43;;;4.18;;
74636;SDS011;63141;54.616;39.754;2023-06-14T11:31:50;16.70;;;4.22;;
74636;SDS011;63141;54.616;39.754;2023-06-14T11:34:57;12.98;;;3.92;;
74636;SDS011;63141;54.616;39.754;2023-06-14T11:38:09;11.60;;;3.70;;
74636;SDS011;63141;54.616;39.754;2023-06-14T11:41:17;17.25;;;3.75;;
74636;SDS011;63141;54.616;39.754;2023-06-14T11:44:25;13.20;;;3.58;;
74636;SDS011;63141;54.616;39.754;2023-06-14T11:47:32;10.13;;;3.70;;
74636;SDS011;63141;54.616;39.754;2023-06-14T11:50:40;15.57;;;4.00;;
74636;SDS011;63141;54.616;39.754;2023-06-14T11:53:42;16.50;;;3.83;;
74636;SDS011;63141;54.616;39.754;2023-06-14T11:56:43;9.55;;;2.90;;
74636;SDS011;63141;54.616;39.754;2023-06-14T11:59:54;11.00;;;3.38;;
74636;SDS011;63141;54.616;39.754;2023-06-14T12:03:00;9.30;;;3.25;;
74636;SDS011;63141;54.616;39.754;2023-06-14T12:06:05;9.93;;;2.80;;
74636;SDS011;63141;54.616;39.754;2023-06-14T12:09:10;9.85;;;2.78;;
74636;SDS011;63141;54.616;39.754;2023-06-14T12:12:16;7.68;;;2.88;;
74636;SDS011;63141;54.616;39.754;2023-06-14T12:15:17;8.90;;;2.75;;
74636;SDS011;63141;54.616;39.754;2023-06-14T12:18:31;5.82;;;2.38;;
74636;SDS011;63141;54.616;39.754;2023-06-14T12:21:47;5.82;;;2.85;;
74636;SDS011;63141;54.616;39.754;2023-06-14T12:24:52;6.90;;;2.15;;
74636;SDS011;63141;54.616;39.754;2023-06-14T12:28:07;5.87;;;2.40;;
74636;SDS011;63141;54.616;39.754;2023-06-14T12:31:12;3.33;;;1.77;;
74636;SDS011;63141;54.616;39.754;2023-06-14T12:34:21;6.10;;;2.10;;
74636;SDS011;63141;54.616;39.754;2023-06-14T12:37:31;6.10;;;2.17;;
74636;SDS011;63141;54.616;39.754;2023-06-14T12:40:47;4.60;;;2.45;;
74636;SDS011;63141;54.616;39.754;2023-06-14T12:43:54;3.97;;;1.92;;
74636;SDS011;63141;54.616;39.754;2023-06-14T12:47:01;9.40;;;2.40;;
74636;SDS011;63141;54.616;39.754;2023-06-14T12:50:11;2.75;;;1.77;;
74636;SDS011;63141;54.616;39.754;2023-06-14T12:53:27;4.20;;;2.38;;
74636;SDS011;63141;54.616;39.754;2023-06-14T12:56:31;3.85;;;2.30;;
74636;SDS011;63141;54.616;39.754;2023-06-14T12:59:44;7.22;;;2.45;;
74636;SDS011;63141;54.616;39.754;2023-06-14T13:03:12;4.60;;;2.03;;
74636;SDS011;63141;54.616;39.754;2023-06-14T13:06:16;5.75;;;1.83;;
74636;SDS011;63141;54.616;39.754;2023-06-14T13:09:32;5.28;;;2.08;;
74636;SDS011;63141;54.616;39.754;2023-06-14T13:12:33;6.97;;;2.00;;
74636;SDS011;63141;54.616;39.754;2023-06-14T13:15:37;6.35;;;2.25;;
74636;SDS011;63141;54.616;39.754;2023-06-14T13:18:41;5.10;;;1.90;;
74636;SDS011;63141;54.616;39.754;2023-06-14T13:21:57;2.97;;;1.95;;
74636;SDS011;63141;54.616;39.754;2023-06-14T13:25:08;6.35;;;2.17;;
74636;SDS011;63141;54.616;39.754;2023-06-14T13:28:13;3.67;;;1.77;;
74636;SDS011;63141;54.616;39.754;2023-06-14T13:31:20;3.05;;;2.20;;
74636;SDS011;63141;54.616;39.754;2023-06-14T13:34:28;3.25;;;1.60;;
74636;SDS011;63141;54.616;39.754;2023-06-14T13:37:44;3.53;;;2.10;;
74636;SDS011;63141;54.616;39.754;2023-06-14T13:40:46;6.68;;;2.00;;
74636;SDS011;63141;54.616;39.754;2023-06-14T13:43:47;7.60;;;2.40;;
74636;SDS011;63141;54.616;39.754;2023-06-14T13:47:00;3.17;;;2.08;;
74636;SDS011;63141;54.616;39.754;2023-06-14T13:50:11;6.90;;;2.00;;
74636;SDS011;63141;54.616;39.754;2023-06-14T13:53:26;4.97;;;1.98;;
74636;SDS011;63141;54.616;39.754;2023-06-14T13:56:27;4.80;;;1.77;;
74636;SDS011;63141;54.616;39.754;2023-06-14T13:59:31;3.22;;;1.80;;
74636;SDS011;63141;54.616;39.754;2023-06-14T14:02:38;6.10;;;2.17;;
74636;SDS011;63141;54.616;39.754;2023-06-14T14:05:48;7.18;;;2.13;;
74636;SDS011;63141;54.616;39.754;2023-06-14T14:08:52;7.60;;;2.13;;
74636;SDS011;63141;54.616;39.754;2023-06-14T14:12:00;3.28;;;1.80;;
74636;SDS011;63141;54.616;39.754;2023-06-14T14:15:17;2.30;;;1.60;;
74636;SDS011;63141;54.616;39.754;2023-06-14T14:18:28;4.65;;;1.63;;
74636;SDS011;63141;54.616;39.754;2023-06-14T14:21:33;5.35;;;1.83;;
74636;SDS011;63141;54.616;39.754;2023-06-14T14:24:46;5.07;;;1.77;;
74636;SDS011;63141;54.616;39.754;2023-06-14T14:27:53;3.45;;;1.73;;
74636;SDS011;63141;54.616;39.754;2023-06-14T14:30:55;4.38;;;1.70;;
74636;SDS011;63141;54.616;39.754;2023-06-14T14:34:04;3.80;;;1.92;;
74636;SDS011;63141;54.616;39.754;2023-06-14T14:37:21;3.63;;;1.95;;
74636;SDS011;63141;54.616;39.754;2023-06-14T14:40:39;4.40;;;1.90;;
74636;SDS011;63141;54.616;39.754;2023-06-14T14:43:41;6.00;;;2.00;;
74636;SDS011;63141;54.616;39.754;2023-06-14T14:46:45;3.22;;;2.05;;
74636;SDS011;63141;54.616;39.754;2023-06-14T14:49:55;5.78;;;2.17;;
74636;SDS011;63141;54.616;39.754;2023-06-14T14:52:56;2.55;;;1.83;;
74636;SDS011;63141;54.616;39.754;2023-06-14T14:56:19;11.30;;;2.30;;
74636;SDS011;63141;54.616;39.754;2023-06-14T14:59:23;7.78;;;2.00;;
74636;SDS011;63141;54.616;39.754;2023-06-14T15:02:32;4.93;;;1.88;;
74636;SDS011;63141;54.616;39.754;2023-06-14T15:05:36;3.50;;;2.08;;
74636;SDS011;63141;54.616;39.754;2023-06-14T15:08:49;4.35;;;2.20;;
74636;SDS011;63141;54.616;39.754;2023-06-14T15:11:53;3.00;;;1.92;;
74636;SDS011;63141;54.616;39.754;2023-06-14T15:15:04;4.95;;;1.95;;
74636;SDS011;63141;54.616;39.754;2023-06-14T15:18:18;7.72;;;2.25;;
74636;SDS011;63141;54.616;39.754;2023-06-14T15:21:21;9.52;;;2.25;;
74636;SDS011;63141;54.616;39.754;2023-06-14T15:24:34;3.28;;;1.85;;
74636;SDS011;63141;54.616;39.754;2023-06-14T15:27:50;7.93;;;2.03;;
74636;SDS011;63141;54.616;39.754;2023-06-14T15:30:51;3.80;;;1.77;;
74636;SDS011;63141;54.616;39.754;2023-06-14T15:33:55;5.32;;;2.20;;
74636;SDS011;63141;54.616;39.754;2023-06-14T15:37:03;2.42;;;1.80;;
74636;SDS011;63141;54.616;39.754;2023-06-14T15:40:13;2.88;;;1.80;;
74636;SDS011;63141;54.616;39.754;2023-06-14T15:43:26;4.95;;;1.90;;
74636;SDS011;63141;54.616;39.754;2023-06-14T15:46:28;8.35;;;2.47;;
74636;SDS011;63141;54.616;39.754;2023-06-14T15:49:56;14.25;;;2.35;;
74636;SDS011;63141;54.616;39.754;2023-06-14T15:53:03;5.53;;;2.20;;
74636;SDS011;63141;54.616;39.754;2023-06-14T15:56:22;3.05;;;2.10;;
74636;SDS011;63141;54.616;39.754;2023-06-14T15:59:35;3.85;;;2.10;;
74636;SDS011;63141;54.616;39.754;2023-06-14T16:02:42;5.45;;;2.00;;
74636;SDS011;63141;54.616;39.754;2023-06-14T16:06:18;4.53;;;1.70;;
74636;SDS011;63141;54.616;39.754;2023-06-14T16:09:23;2.97;;;2.08;;
74636;SDS011;63141;54.616;39.754;2023-06-14T16:12:27;6.57;;;2.25;;
74636;SDS011;63141;54.616;39.754;2023-06-14T16:15:37;10.35;;;2.75;;
74636;SDS011;63141;54.616;39.754;2023-06-14T16:18:48;6.05;;;2.50;;
74636;SDS011;63141;54.616;39.754;2023-06-14T16:21:50;3.17;;;2.10;;
74636;SDS011;63141;54.616;39.754;2023-06-14T16:25:03;4.70;;;2.33;;
74636;SDS011;63141;54.616;39.754;2023-06-14T16:28:16;6.38;;;2.33;;
74636;SDS011;63141;54.616;39.754;2023-06-14T16:31:29;4.20;;;2.00;;
74636;SDS011;63141;54.616;39.754;2023-06-14T16:35:10;7.07;;;2.05;;
74636;SDS011;63141;54.616;39.754;2023-06-14T16:38:11;6.03;;;2.28;;
74636;SDS011;63141;54.616;39.754;2023-06-14T16:41:13;7.50;;;2.30;;
74636;SDS011;63141;54.616;39.754;2023-06-14T16:44:26;4.93;;;2.53;;
74636;SDS011;63141;54.616;39.754;2023-06-14T16:47:48;9.32;;;2.78;;
74636;SDS011;63141;54.616;39.754;2023-06-14T16:50:56;6.97;;;2.35;;
74636;SDS011;63141;54.616;39.754;2023-06-14T16:54:18;7.55;;;2.78;;
74636;SDS011;63141;54.616;39.754;2023-06-14T16:57:44;6.72;;;2.70;;
74636;SDS011;63141;54.616;39.754;2023-06-14T17:01:06;7.43;;;2.83;;
74636;SDS011;63141;54.616;39.754;2023-06-14T17:04:22;6.93;;;2.95;;
74636;SDS011;63141;54.616;39.754;2023-06-14T17:07:44;8.38;;;3.00;;
74636;SDS011;63141;54.616;39.754;2023-06-14T17:10:52;5.25;;;2.95;;
74636;SDS011;63141;54.616;39.754;2023-06-14T17:14:19;9.63;;;3.10;;
74636;SDS011;63141;54.616;39.754;2023-06-14T17:17:39;10.00;;;2.72;;
74636;SDS011;63141;54.616;39.754;2023-06-14T17:20:46;5.60;;;3.00;;
74636;SDS011;63141;54.616;39.754;2023-06-14T17:23:54;4.88;;;3.08;;
74636;SDS011;63141;54.616;39.754;2023-06-14T17:26:56;12.52;;;3.75;;
74636;SDS011;63141;54.616;39.754;2023-06-14T17:30:19;6.15;;;3.38;;
74636;SDS011;63141;54.616;39.754;2023-06-14T17:33:47;10.32;;;3.88;;
74636;SDS011;63141;54.616;39.754;2023-06-14T17:36:54;6.97;;;3.58;;
74636;SDS011;63141;54.616;39.754;2023-06-14T17:40:17;8.65;;;3.60;;
74636;SDS011;63141;54.616;39.754;2023-06-14T17:43:33;6.78;;;3.72;;
74636;SDS011;63141;54.616;39.754;2023-06-14T17:46:50;7.78;;;4.43;;
74636;SDS011;63141;54.616;39.754;2023-06-14T17:50:06;8.77;;;4.90;;
74636;SDS011;63141;54.616;39.754;2023-06-14T17:53:16;8.07;;;4.53;;
74636;SDS011;63141;54.616;39.754;2023-06-14T17:56:33;10.82;;;4.38;;
74636;SDS011;63141;54.616;39.754;2023-06-14T17:59:51;8.60;;;4.10;;
74636;SDS011;63141;54.616;39.754;2023-06-14T18:03:18;7.57;;;4.20;;
74636;SDS011;63141;54.616;39.754;2023-06-14T18:06:55;6.63;;;4.65;;
74636;SDS011;63141;54.616;39.754;2023-06-14T18:10:17;8.90;;;5.03;;
74636;SDS011;63141;54.616;39.754;2023-06-14T18:13:42;7.57;;;4.38;;
74636;SDS011;63141;54.616;39.754;2023-06-14T18:16:50;5.60;;;3.45;;
74636;SDS011;63141;54.616;39.754;2023-06-14T18:19:54;14.27;;;6.50;;
74636;SDS011;63141;54.616;39.754;2023-06-14T18:23:08;8.02;;;4.72;;
74636;SDS011;63141;54.616;39.754;2023-06-14T18:26:19;6.15;;;3.92;;
74636;SDS011;63141;54.616;39.754;2023-06-14T18:29:43;5.38;;;3.92;;
74636;SDS011;63141;54.616;39.754;2023-06-14T18:32:53;16.77;;;7.25;;
74636;SDS011;63141;54.616;39.754;2023-06-14T18:36:10;7.95;;;4.00;;
74636;SDS011;63141;54.616;39.754;2023-06-14T18:39:11;7.10;;;3.78;;
74636;SDS011;63141;54.616;39.754;2023-06-14T18:42:27;11.20;;;5.38;;
74636;SDS011;63141;54.616;39.754;2023-06-14T18:45:35;6.95;;;4.80;;